Kamikawa Maru — JG5687 — position and weather

sailwx.info

Track history (hours):
 
Tides and Currents Weather Stations Pressure Air Temp Water Temp Dewpoint Dewpoint Depression Visibility Wind Speed Wind Dir Waves Ship Positions

Kamikawa Maru

Last reported at 2016-May-24 22:33 UTC. Time now 2016-May-28 10:03 UTC.
Position N 37°33' E 141°09'.

Length 162 m; draft 6.8 m.

Type: Cargo ship. MMSI: 431101012.

Date/timePositionNaut miles runAvg speedWind from/ knotsBaromVisibWave heightAir tempDewpointWater temp
2016-May-24 22:33N 37°33' E 141°09'2020.0
2016-May-24 21:33N 37°13' E 141°09'2019.7
2016-May-24 20:33N 36°53' E 141°09'1919.4
2016-May-24 19:34N 36°34' E 141°07'2019.7
2016-May-24 18:34N 36°14' E 141°03'2019.6
2016-May-24 17:31N 35°54' E 140°59'2219.4
2016-May-24 16:23N 35°33' E 140°50'1719.9
2016-May-24 15:33N 35°19' E 140°40'2121.5
2016-May-24 14:33N 35°03' E 140°22'2221.5
2016-May-24 13:33N 34°53' E 139°59'1615.8
2016-May-24 12:33N 35°01' E 139°43'1615.7
2016-May-24 11:34N 35°17' E 139°45'1312.6
2016-May-24 10:33N 35°29' E 139°50'1010.1
2016-May-24 09:33N 35°38' E 139°46'0 0.0
2016-May-24 08:30N 35°38' E 139°46'0 0.0
2016-May-24 07:33N 35°38' E 139°46'0 0.0
2016-May-24 06:24N 35°38' E 139°46'0 0.1
2016-May-24 05:33N 35°38' E 139°46'0 0.0
2016-May-24 04:33N 35°38' E 139°46'0 0.0
2016-May-24 03:33N 35°38' E 139°46'0 0.0
2016-May-24 02:33N 35°38' E 139°46'0 0.0
2016-May-24 01:30N 35°38' E 139°46'0 0.0
2016-May-24 00:30N 35°38' E 139°46'0 0.1
2016-May-23 23:33N 35°38' E 139°46'1111.4
2016-May-23 22:33N 35°27' E 139°50'1212.0
2016-May-23 21:33N 35°15' E 139°47'1514.7
2016-May-23 20:33N 35°02' E 139°39'1717.0
2016-May-23 19:34N 34°51' E 139°23'1818.0
2016-May-23 18:34N 34°38' E 139°08'32 1.1
2016-May-22 12:19N 34°31' E 138°30'5118.2
2016-May-22 09:32N 34°54' E 139°25'1919.1
2016-May-22 08:34N 35°06' E 139°42'1313.2
2016-May-22 07:33N 35°19' E 139°43'1515.3
2016-May-22 06:34N 35°34' E 139°49'5 4.5
2016-May-22 05:22N 35°38' E 139°46'0 0.0
2016-May-22 04:31N 35°38' E 139°46'0 0.0
2016-May-22 03:31N 35°38' E 139°46'0 0.0
2016-May-22 02:28N 35°38' E 139°46'0 0.1
2016-May-22 01:31N 35°38' E 139°46'0 0.0
2016-May-22 00:31N 35°38' E 139°46'0 0.0
2016-May-21 23:33N 35°38' E 139°46'1010.3
2016-May-21 22:33N 35°29' E 139°51'1312.9
2016-May-21 21:33N 35°17' E 139°46'1515.1
2016-May-21 20:34N 35°02' E 139°43'1414.2
2016-May-21 19:33N 34°52' E 139°56'1817.8
2016-May-21 18:34N 35°01' E 140°16'1716.8
2016-May-21 17:31N 35°10' E 140°34'1817.7
2016-May-21 16:31N 35°25' E 140°45'1818.7
2016-May-21 15:33N 35°41' E 140°56'2418.4
2016-May-21 14:14N 36°04' E 141°03'  
2016-May-17 20:21N 36°53' E 141°11'1619.4
2016-May-17 19:33N 36°38' E 141°08'1919.1
2016-May-17 18:33N 36°19' E 141°04'1919.1
2016-May-17 17:33N 35°60' E 141°01'2418.6
2016-May-17 16:17N 35°37' E 140°55'1418.5
2016-May-17 15:33N 35°25' E 140°46'2019.4
2016-May-17 14:33N 35°09' E 140°33'1919.2
2016-May-17 13:33N 34°57' E 140°14'2118.0
2016-May-17 12:25N 34°49' E 139°51'1516.9
2016-May-17 11:33N 35°02' E 139°42'1615.8
2016-May-17 10:33N 35°18' E 139°44'1515.4
2016-May-17 09:33N 35°32' E 139°51'7 7.2
2016-May-17 08:33N 35°38' E 139°46'0 0.0
2016-May-17 07:30N 35°38' E 139°46'0 0.0
2016-May-17 06:33N 35°38' E 139°46'0 0.0
2016-May-17 05:33N 35°38' E 139°46'0 0.0
2016-May-17 04:33N 35°38' E 139°46'0 0.0
2016-May-17 03:33N 35°38' E 139°46'0 0.0
2016-May-17 02:27N 35°38' E 139°46'0 0.0
2016-May-17 01:33N 35°38' E 139°46'0 0.0
2016-May-17 00:33N 35°38' E 139°46'0 0.0
2016-May-16 23:33N 35°38' E 139°46'1110.7
2016-May-16 22:34N 35°28' E 139°51'1212.2
2016-May-16 21:33N 35°17' E 139°46'1414.3
2016-May-16 20:33N 35°03' E 139°42'71 2.2
2016-May-15 12:13N 34°31' E 138°25'5317.7
2016-May-15 09:14N 34°53' E 139°23'1418.7
2016-May-15 08:30N 35°02' E 139°36'1616.7
2016-May-15 07:33N 35°15' E 139°46'1413.9
2016-May-15 06:33N 35°29' E 139°50'10 9.6
2016-May-15 05:33N 35°38' E 139°46'0 0.0
2016-May-15 04:30N 35°38' E 139°46'0 0.0
2016-May-15 03:33N 35°38' E 139°46'0 0.0
2016-May-15 02:33N 35°38' E 139°46'0 0.0
2016-May-15 01:27N 35°38' E 139°46'0 0.1
2016-May-15 00:30N 35°38' E 139°46'0 0.0
2016-May-14 23:33N 35°38' E 139°46'1111.4
2016-May-14 22:33N 35°27' E 139°50'  
Track history (hours):
 
Tides and Currents Weather Stations Pressure Air Temp Water Temp Dewpoint Dewpoint Depression Visibility Wind Speed Wind Dir Waves Ship Positions

Kamikawa Maru

Last reported at 2016-May-24 22:33 UTC. Time now 2016-May-28 10:03 UTC.
Position N 37°33' E 141°09'.

Length 162 m; draft 6.8 m.

Type: Cargo ship. MMSI: 431101012.

Date/timePositionNaut miles runAvg speedWind from/ knotsBaromVisibWave heightAir tempDewpointWater temp
2016-May-24 22:33N 37°33' E 141°09'2020.0
2016-May-24 21:33N 37°13' E 141°09'2019.7
2016-May-24 20:33N 36°53' E 141°09'1919.4
2016-May-24 19:34N 36°34' E 141°07'2019.7
2016-May-24 18:34N 36°14' E 141°03'2019.6
2016-May-24 17:31N 35°54' E 140°59'2219.4
2016-May-24 16:23N 35°33' E 140°50'1719.9
2016-May-24 15:33N 35°19' E 140°40'2121.5
2016-May-24 14:33N 35°03' E 140°22'2221.5
2016-May-24 13:33N 34°53' E 139°59'1615.8
2016-May-24 12:33N 35°01' E 139°43'1615.7
2016-May-24 11:34N 35°17' E 139°45'1312.6
2016-May-24 10:33N 35°29' E 139°50'1010.1
2016-May-24 09:33N 35°38' E 139°46'0 0.0
2016-May-24 08:30N 35°38' E 139°46'0 0.0
2016-May-24 07:33N 35°38' E 139°46'0 0.0
2016-May-24 06:24N 35°38' E 139°46'0 0.1
2016-May-24 05:33N 35°38' E 139°46'0 0.0
2016-May-24 04:33N 35°38' E 139°46'0 0.0
2016-May-24 03:33N 35°38' E 139°46'0 0.0
2016-May-24 02:33N 35°38' E 139°46'0 0.0
2016-May-24 01:30N 35°38' E 139°46'0 0.0
2016-May-24 00:30N 35°38' E 139°46'0 0.1
2016-May-23 23:33N 35°38' E 139°46'1111.4
2016-May-23 22:33N 35°27' E 139°50'1212.0
2016-May-23 21:33N 35°15' E 139°47'1514.7
2016-May-23 20:33N 35°02' E 139°39'1717.0
2016-May-23 19:34N 34°51' E 139°23'1818.0
2016-May-23 18:34N 34°38' E 139°08'32 1.1
2016-May-22 12:19N 34°31' E 138°30'5118.2
2016-May-22 09:32N 34°54' E 139°25'1919.1
2016-May-22 08:34N 35°06' E 139°42'1313.2
2016-May-22 07:33N 35°19' E 139°43'1515.3
2016-May-22 06:34N 35°34' E 139°49'5 4.5
2016-May-22 05:22N 35°38' E 139°46'0 0.0
2016-May-22 04:31N 35°38' E 139°46'0 0.0
2016-May-22 03:31N 35°38' E 139°46'0 0.0
2016-May-22 02:28N 35°38' E 139°46'0 0.1
2016-May-22 01:31N 35°38' E 139°46'0 0.0
2016-May-22 00:31N 35°38' E 139°46'0 0.0
2016-May-21 23:33N 35°38' E 139°46'1010.3
2016-May-21 22:33N 35°29' E 139°51'1312.9
2016-May-21 21:33N 35°17' E 139°46'1515.1
2016-May-21 20:34N 35°02' E 139°43'1414.2
2016-May-21 19:33N 34°52' E 139°56'1817.8
2016-May-21 18:34N 35°01' E 140°16'1716.8
2016-May-21 17:31N 35°10' E 140°34'1817.7
2016-May-21 16:31N 35°25' E 140°45'1818.7
2016-May-21 15:33N 35°41' E 140°56'2418.4
2016-May-21 14:14N 36°04' E 141°03'  
2016-May-17 20:21N 36°53' E 141°11'1619.4
2016-May-17 19:33N 36°38' E 141°08'1919.1
2016-May-17 18:33N 36°19' E 141°04'1919.1
2016-May-17 17:33N 35°60' E 141°01'2418.6
2016-May-17 16:17N 35°37' E 140°55'1418.5
2016-May-17 15:33N 35°25' E 140°46'2019.4
2016-May-17 14:33N 35°09' E 140°33'1919.2
2016-May-17 13:33N 34°57' E 140°14'2118.0
2016-May-17 12:25N 34°49' E 139°51'1516.9
2016-May-17 11:33N 35°02' E 139°42'1615.8
2016-May-17 10:33N 35°18' E 139°44'1515.4
2016-May-17 09:33N 35°32' E 139°51'7 7.2
2016-May-17 08:33N 35°38' E 139°46'0 0.0
2016-May-17 07:30N 35°38' E 139°46'0 0.0
2016-May-17 06:33N 35°38' E 139°46'0 0.0
2016-May-17 05:33N 35°38' E 139°46'0 0.0
2016-May-17 04:33N 35°38' E 139°46'0 0.0
2016-May-17 03:33N 35°38' E 139°46'0 0.0
2016-May-17 02:27N 35°38' E 139°46'0 0.0
2016-May-17 01:33N 35°38' E 139°46'0 0.0
2016-May-17 00:33N 35°38' E 139°46'0 0.0
2016-May-16 23:33N 35°38' E 139°46'1110.7
2016-May-16 22:34N 35°28' E 139°51'1212.2
2016-May-16 21:33N 35°17' E 139°46'1414.3
2016-May-16 20:33N 35°03' E 139°42'71 2.2
2016-May-15 12:13N 34°31' E 138°25'5317.7
2016-May-15 09:14N 34°53' E 139°23'1418.7
2016-May-15 08:30N 35°02' E 139°36'1616.7
2016-May-15 07:33N 35°15' E 139°46'1413.9
2016-May-15 06:33N 35°29' E 139°50'10 9.6
2016-May-15 05:33N 35°38' E 139°46'0 0.0
2016-May-15 04:30N 35°38' E 139°46'0 0.0
2016-May-15 03:33N 35°38' E 139°46'0 0.0
2016-May-15 02:33N 35°38' E 139°46'0 0.0
2016-May-15 01:27N 35°38' E 139°46'0 0.1
2016-May-15 00:30N 35°38' E 139°46'0 0.0
2016-May-14 23:33N 35°38' E 139°46'1111.4
2016-May-14 22:33N 35°27' E 139°50'  

Dump ship's entire track history